createdAt,value
2022-10-10T00:03:32.478Z,0
2022-10-10T00:08:36.583Z,0
2022-10-10T00:13:40.806Z,0
2022-10-10T00:18:44.946Z,0
2022-10-10T00:23:49.091Z,0
2022-10-10T00:28:53.270Z,0
2022-10-10T00:33:57.423Z,0
2022-10-10T00:39:01.616Z,0
2022-10-10T00:44:05.849Z,0
2022-10-10T00:49:09.940Z,0
2022-10-10T00:54:14.093Z,0
2022-10-10T00:59:18.214Z,0
2022-10-10T01:09:26.541Z,0
2022-10-10T01:14:30.727Z,0
2022-10-10T01:19:34.854Z,0
2022-10-10T01:24:39.046Z,0
2022-10-10T01:29:43.218Z,0
2022-10-10T01:34:47.380Z,0
2022-10-10T01:39:51.525Z,0
2022-10-10T01:44:55.710Z,0
2022-10-10T01:49:59.875Z,0
2022-10-10T01:55:04.005Z,0
2022-10-10T02:00:08.197Z,0
2022-10-10T02:05:12.348Z,0
2022-10-10T02:10:16.549Z,0
2022-10-10T02:15:20.675Z,0
2022-10-10T02:20:24.805Z,0
2022-10-10T02:25:29.003Z,0
2022-10-10T02:30:33.117Z,0
2022-10-10T02:35:37.316Z,0
2022-10-10T02:40:41.444Z,0
2022-10-10T02:45:45.600Z,0
2022-10-10T02:50:49.796Z,0
2022-10-10T02:55:53.981Z,0
2022-10-10T03:00:58.128Z,0
2022-10-10T03:06:02.300Z,0
2022-10-10T03:11:06.426Z,0
2022-10-10T03:16:10.738Z,0
2022-10-10T03:21:14.842Z,0
2022-10-10T03:26:18.917Z,0
2022-10-10T03:31:23.063Z,0
2022-10-10T03:36:27.267Z,0
2022-10-10T03:41:31.407Z,0
2022-10-10T03:46:35.575Z,0
2022-10-10T03:51:37.864Z,0
2022-10-10T03:56:41.983Z,0
2022-10-10T04:01:46.170Z,0
2022-10-10T04:06:50.325Z,0
2022-10-10T04:11:54.502Z,0
2022-10-10T04:17:02.828Z,0
2022-10-10T04:22:02.821Z,0
2022-10-10T04:27:06.967Z,0
2022-10-10T04:32:11.157Z,0
2022-10-10T04:37:15.277Z,0
2022-10-10T04:42:19.465Z,0
2022-10-10T04:47:23.605Z,0
2022-10-10T04:52:27.830Z,0
2022-10-10T04:57:31.919Z,0
2022-10-10T05:02:36.125Z,0
2022-10-10T05:07:40.288Z,0
2022-10-10T05:12:44.449Z,0
2022-10-10T05:17:48.576Z,0
2022-10-10T05:22:52.960Z,0
2022-10-10T05:27:56.921Z,3
2022-10-10T05:33:01.091Z,10
2022-10-10T05:38:05.239Z,24
2022-10-10T05:43:09.425Z,57
2022-10-10T05:48:13.555Z,112
2022-10-10T05:53:17.699Z,180
2022-10-10T05:58:21.851Z,266
2022-10-10T06:03:26.028Z,363
2022-10-10T06:08:30.242Z,463
2022-10-10T06:13:34.389Z,558
2022-10-10T06:18:38.516Z,648
2022-10-10T06:23:42.692Z,739
2022-10-10T06:28:46.900Z,833
2022-10-10T06:33:51.031Z,927
2022-10-10T06:38:55.160Z,1025
2022-10-10T06:43:59.365Z,1121
2022-10-10T06:49:03.535Z,1211
2022-10-10T06:54:07.665Z,1290
2022-10-10T06:59:11.860Z,1429
2022-10-10T07:04:15.990Z,1593
2022-10-10T07:09:20.158Z,1748
2022-10-10T07:14:24.327Z,1885
2022-10-10T07:19:28.501Z,2030
2022-10-10T07:24:32.608Z,2211
2022-10-10T07:29:36.800Z,2384
2022-10-10T07:34:40.968Z,2528
2022-10-10T07:39:45.114Z,2675
2022-10-10T07:44:49.300Z,2842
2022-10-10T07:49:53.482Z,2978
2022-10-10T07:54:57.577Z,3155
2022-10-10T08:00:01.754Z,3292
2022-10-10T08:05:05.924Z,3380
2022-10-10T08:10:10.104Z,3369
2022-10-10T08:15:14.232Z,3293
2022-10-10T08:20:18.424Z,3132
2022-10-10T08:25:22.564Z,2960
2022-10-10T08:30:26.741Z,2937
2022-10-10T08:35:30.853Z,2867
2022-10-10T08:40:35.058Z,2773
2022-10-10T08:45:39.218Z,2585
2022-10-10T08:50:43.363Z,2324
2022-10-10T08:55:47.542Z,2368
2022-10-10T09:00:51.748Z,2374
2022-10-10T09:05:55.854Z,2431
2022-10-10T09:11:00.448Z,2465
2022-10-10T09:16:04.162Z,2409
2022-10-10T09:21:06.470Z,2210
2022-10-10T09:31:14.759Z,1995
2022-10-10T09:36:18.916Z,1990
2022-10-10T09:41:23.060Z,2027
2022-10-10T09:46:27.229Z,2185
2022-10-10T09:51:31.407Z,2379
2022-10-10T09:56:35.536Z,2670
2022-10-10T10:01:39.694Z,3076
2022-10-10T10:06:43.899Z,3530
2022-10-10T10:11:48.031Z,4311
2022-10-10T10:16:52.220Z,5026
2022-10-10T10:21:56.345Z,5935
2022-10-10T10:27:00.503Z,6048
2022-10-10T10:32:04.709Z,5950
2022-10-10T10:37:13.936Z,5466
2022-10-10T10:47:17.170Z,4345
2022-10-10T10:52:21.313Z,3982
2022-10-10T10:57:33.081Z,4296
2022-10-10T11:02:54.388Z,4493
2022-10-10T11:07:33.823Z,4335
2022-10-10T11:12:37.946Z,4358
2022-10-10T11:17:42.088Z,4610
2022-10-10T11:22:46.632Z,4934
2022-10-10T11:27:50.400Z,5085
2022-10-10T11:32:54.565Z,5190
2022-10-10T11:37:58.738Z,5891
2022-10-10T11:43:02.913Z,6035
2022-10-10T11:48:07.110Z,5585
2022-10-10T11:53:11.211Z,6597
2022-10-10T11:58:15.404Z,7375
2022-10-10T12:03:19.544Z,6807
2022-10-10T12:08:23.696Z,6679
2022-10-10T12:13:27.831Z,6876
2022-10-10T12:18:32.027Z,7427
2022-10-10T12:23:36.142Z,7476
2022-10-10T12:28:40.515Z,6561
2022-10-10T12:38:48.655Z,6507
2022-10-10T12:43:52.810Z,6908
2022-10-10T12:48:56.981Z,7093
2022-10-10T12:54:01.106Z,6839
2022-10-10T12:59:05.295Z,7086
2022-10-10T13:04:09.430Z,6753
2022-10-10T13:09:13.609Z,6319
2022-10-10T13:14:17.759Z,6575
2022-10-10T13:19:21.922Z,6296
2022-10-10T13:24:26.063Z,6245
2022-10-10T13:29:30.236Z,5325
2022-10-10T13:34:34.393Z,4742
2022-10-10T13:39:38.535Z,5104
2022-10-10T13:44:42.739Z,5480
2022-10-10T13:49:46.841Z,5534
2022-10-10T13:54:51.027Z,5662
2022-10-10T13:59:55.157Z,3901
2022-10-10T14:04:59.339Z,3052
2022-10-10T14:10:03.515Z,3227
2022-10-10T14:15:07.657Z,3875
2022-10-10T14:20:11.829Z,4780
2022-10-10T14:25:15.994Z,5473
2022-10-10T14:30:20.174Z,6055
2022-10-10T14:35:24.277Z,5553
2022-10-10T14:40:28.459Z,4515
2022-10-10T14:45:32.599Z,4560
2022-10-10T14:50:34.875Z,4660
2022-10-10T14:55:39.038Z,4876
2022-10-10T15:00:43.201Z,3905
2022-10-10T15:05:47.387Z,4053
2022-10-10T15:10:51.505Z,2959
2022-10-10T15:15:55.697Z,3058
2022-10-10T15:21:00.027Z,2621
2022-10-10T15:26:04.037Z,2957
2022-10-10T15:31:08.139Z,1965
2022-10-10T15:36:15.809Z,823
2022-10-10T15:41:16.441Z,1067
2022-10-10T15:46:20.634Z,952
2022-10-10T15:51:24.772Z,752
2022-10-10T15:56:28.922Z,712
2022-10-10T16:01:33.125Z,584
2022-10-10T16:06:37.231Z,509
2022-10-10T16:11:41.453Z,493
2022-10-10T16:16:45.603Z,339
2022-10-10T16:21:49.743Z,357
2022-10-10T16:26:53.934Z,351
2022-10-10T16:31:58.080Z,355
2022-10-10T16:37:02.222Z,240
2022-10-10T16:42:06.402Z,130
2022-10-10T16:47:10.586Z,45
2022-10-10T16:52:14.682Z,37
2022-10-10T16:57:18.875Z,42
2022-10-10T17:02:22.993Z,15
2022-10-10T17:07:27.216Z,3
2022-10-10T17:12:31.330Z,0
2022-10-10T17:17:35.524Z,0
2022-10-10T17:22:39.681Z,0
2022-10-10T17:27:43.849Z,0
2022-10-10T17:32:48.002Z,0
2022-10-10T17:37:52.166Z,0
2022-10-10T17:42:56.284Z,0
2022-10-10T17:48:00.504Z,0
2022-10-10T17:53:04.644Z,0
2022-10-10T17:58:08.787Z,0
2022-10-10T18:03:12.934Z,0
2022-10-10T18:08:17.112Z,0
2022-10-10T18:13:21.253Z,0
2022-10-10T18:18:25.432Z,0
2022-10-10T18:23:29.587Z,0
2022-10-10T18:28:33.798Z,0
2022-10-10T18:33:37.920Z,0
2022-10-10T18:38:42.062Z,0
2022-10-10T18:43:46.207Z,0
2022-10-10T18:48:53.727Z,0
2022-10-10T18:53:54.611Z,0
2022-10-10T18:58:58.729Z,0
2022-10-10T19:04:02.898Z,0
2022-10-10T19:09:07.017Z,0
2022-10-10T19:14:11.218Z,0
2022-10-10T19:19:15.341Z,0
2022-10-10T19:24:19.521Z,0
2022-10-10T19:29:23.683Z,0
2022-10-10T19:34:27.840Z,0
2022-10-10T19:39:31.987Z,0
2022-10-10T19:44:36.189Z,0
2022-10-10T19:49:40.319Z,0
2022-10-10T19:54:44.459Z,0
2022-10-10T19:59:48.625Z,0
2022-10-10T20:04:52.823Z,0
2022-10-10T20:09:56.946Z,0
2022-10-10T20:15:01.141Z,0
2022-10-10T20:20:03.394Z,0
2022-10-10T20:25:07.545Z,0
2022-10-10T20:30:11.694Z,0
2022-10-10T20:35:15.890Z,0
2022-10-10T20:40:20.034Z,0
2022-10-10T20:45:24.166Z,0
2022-10-10T20:50:26.460Z,0
2022-10-10T20:55:30.646Z,0
2022-10-10T21:00:34.762Z,0
2022-10-10T21:05:38.946Z,0
2022-10-10T21:10:43.260Z,0
2022-10-10T21:15:47.285Z,0
2022-10-10T21:20:51.413Z,0
2022-10-10T21:25:55.574Z,0
2022-10-10T21:30:59.723Z,0
2022-10-10T21:36:04.273Z,0
2022-10-10T21:41:08.087Z,0
2022-10-10T21:46:12.209Z,0
2022-10-10T21:51:16.392Z,0
2022-10-10T21:56:20.596Z,0
2022-10-10T22:01:24.810Z,0
2022-10-10T22:06:28.890Z,0
2022-10-10T22:11:33.059Z,0
2022-10-10T22:16:37.214Z,0
2022-10-10T22:21:41.373Z,0
2022-10-10T22:26:45.527Z,0
2022-10-10T22:31:49.731Z,0
2022-10-10T22:36:53.857Z,0
2022-10-10T22:41:58.051Z,0
2022-10-10T22:47:02.155Z,0
2022-10-10T22:52:06.346Z,0
2022-10-10T22:57:10.539Z,0
2022-10-10T23:02:14.696Z,0
2022-10-10T23:07:18.820Z,0
2022-10-10T23:12:22.986Z,0
2022-10-10T23:17:27.169Z,0
2022-10-10T23:22:31.352Z,0
2022-10-10T23:27:35.504Z,0
2022-10-10T23:32:39.653Z,0
2022-10-10T23:37:43.806Z,0
2022-10-10T23:42:47.974Z,0
2022-10-10T23:47:52.144Z,0
2022-10-10T23:52:56.325Z,0
2022-10-10T23:58:00.482Z,0
